sensor_id;sensor_type;location;lat;lon;timestamp;P1;durP1;ratioP1;P2;durP2;ratioP2
35887;SDS011;21990;42.540;23.496;2023-02-28T00:00:07;65.28;;;34.20;;
35887;SDS011;21990;42.540;23.496;2023-02-28T00:02:41;64.60;;;33.28;;
35887;SDS011;21990;42.540;23.496;2023-02-28T00:05:08;60.47;;;31.02;;
35887;SDS011;21990;42.540;23.496;2023-02-28T00:07:35;48.40;;;27.67;;
35887;SDS011;21990;42.540;23.496;2023-02-28T00:10:02;56.05;;;29.15;;
35887;SDS011;21990;42.540;23.496;2023-02-28T00:12:29;59.55;;;30.15;;
35887;SDS011;21990;42.540;23.496;2023-02-28T00:14:54;67.72;;;31.35;;
35887;SDS011;21990;42.540;23.496;2023-02-28T00:17:20;51.80;;;25.98;;
35887;SDS011;21990;42.540;23.496;2023-02-28T00:19:48;52.88;;;26.27;;
35887;SDS011;21990;42.540;23.496;2023-02-28T00:22:16;46.30;;;25.35;;
35887;SDS011;21990;42.540;23.496;2023-02-28T00:24:45;49.28;;;27.55;;
35887;SDS011;21990;42.540;23.496;2023-02-28T00:27:11;49.95;;;26.83;;
35887;SDS011;21990;42.540;23.496;2023-02-28T00:29:37;51.63;;;27.77;;
35887;SDS011;21990;42.540;23.496;2023-02-28T00:32:02;52.28;;;26.95;;
35887;SDS011;21990;42.540;23.496;2023-02-28T00:34:29;53.75;;;28.25;;
35887;SDS011;21990;42.540;23.496;2023-02-28T00:36:54;57.65;;;31.25;;
35887;SDS011;21990;42.540;23.496;2023-02-28T00:39:20;64.68;;;32.67;;
35887;SDS011;21990;42.540;23.496;2023-02-28T00:41:46;61.80;;;33.38;;
35887;SDS011;21990;42.540;23.496;2023-02-28T00:44:12;70.43;;;36.53;;
35887;SDS011;21990;42.540;23.496;2023-02-28T00:46:37;70.45;;;35.78;;
35887;SDS011;21990;42.540;23.496;2023-02-28T00:49:03;60.00;;;32.33;;
35887;SDS011;21990;42.540;23.496;2023-02-28T00:51:28;58.15;;;30.08;;
35887;SDS011;21990;42.540;23.496;2023-02-28T00:53:54;59.88;;;33.35;;
35887;SDS011;21990;42.540;23.496;2023-02-28T00:56:19;59.88;;;31.08;;
35887;SDS011;21990;42.540;23.496;2023-02-28T00:58:45;55.03;;;29.55;;
35887;SDS011;21990;42.540;23.496;2023-02-28T01:01:10;56.08;;;29.75;;
35887;SDS011;21990;42.540;23.496;2023-02-28T01:03:36;55.10;;;29.48;;
35887;SDS011;21990;42.540;23.496;2023-02-28T01:06:02;57.92;;;30.58;;
35887;SDS011;21990;42.540;23.496;2023-02-28T01:08:27;55.97;;;30.15;;
35887;SDS011;21990;42.540;23.496;2023-02-28T01:10:53;58.30;;;30.27;;
35887;SDS011;21990;42.540;23.496;2023-02-28T01:13:18;55.97;;;31.25;;
35887;SDS011;21990;42.540;23.496;2023-02-28T01:15:54;56.55;;;30.33;;
35887;SDS011;21990;42.540;23.496;2023-02-28T01:18:21;62.28;;;31.17;;
35887;SDS011;21990;42.540;23.496;2023-02-28T01:20:47;72.72;;;33.15;;
35887;SDS011;21990;42.540;23.496;2023-02-28T01:23:13;50.58;;;28.65;;
35887;SDS011;21990;42.540;23.496;2023-02-28T01:25:39;57.47;;;29.88;;
35887;SDS011;21990;42.540;23.496;2023-02-28T01:28:06;59.38;;;27.55;;
35887;SDS011;21990;42.540;23.496;2023-02-28T01:30:31;61.58;;;28.80;;
35887;SDS011;21990;42.540;23.496;2023-02-28T01:32:58;61.90;;;29.02;;
35887;SDS011;21990;42.540;23.496;2023-02-28T01:35:23;47.00;;;25.70;;
35887;SDS011;21990;42.540;23.496;2023-02-28T01:37:49;42.10;;;22.45;;
35887;SDS011;21990;42.540;23.496;2023-02-28T01:40:14;44.90;;;24.20;;
35887;SDS011;21990;42.540;23.496;2023-02-28T01:42:40;45.15;;;23.90;;
35887;SDS011;21990;42.540;23.496;2023-02-28T01:45:27;46.17;;;24.20;;
35887;SDS011;21990;42.540;23.496;2023-02-28T01:48:00;51.80;;;27.20;;
35887;SDS011;21990;42.540;23.496;2023-02-28T01:50:33;45.72;;;22.80;;
35887;SDS011;21990;42.540;23.496;2023-02-28T01:53:05;49.92;;;25.17;;
35887;SDS011;21990;42.540;23.496;2023-02-28T01:55:35;34.85;;;17.77;;
35887;SDS011;21990;42.540;23.496;2023-02-28T01:58:02;27.65;;;14.85;;
35887;SDS011;21990;42.540;23.496;2023-02-28T02:00:32;32.45;;;17.58;;
35887;SDS011;21990;42.540;23.496;2023-02-28T02:03:05;35.30;;;16.20;;
35887;SDS011;21990;42.540;23.496;2023-02-28T02:05:34;60.30;;;21.55;;
35887;SDS011;21990;42.540;23.496;2023-02-28T02:08:03;42.53;;;18.35;;
35887;SDS011;21990;42.540;23.496;2023-02-28T02:10:50;71.25;;;20.58;;
35887;SDS011;21990;42.540;23.496;2023-02-28T02:18:53;91.88;;;29.85;;
35887;SDS011;21990;42.540;23.496;2023-02-28T02:24:03;139.90;;;26.88;;
35887;SDS011;21990;42.540;23.496;2023-02-28T02:37:33;55.55;;;23.98;;
35887;SDS011;21990;42.540;23.496;2023-02-28T02:40:25;54.58;;;21.65;;
35887;SDS011;21990;42.540;23.496;2023-02-28T02:42:56;58.75;;;24.88;;
35887;SDS011;21990;42.540;23.496;2023-02-28T02:45:39;62.60;;;26.92;;
35887;SDS011;21990;42.540;23.496;2023-02-28T02:48:11;53.22;;;22.02;;
35887;SDS011;21990;42.540;23.496;2023-02-28T02:50:44;38.20;;;18.73;;
35887;SDS011;21990;42.540;23.496;2023-02-28T02:53:13;34.58;;;16.27;;
35887;SDS011;21990;42.540;23.496;2023-02-28T02:55:43;31.95;;;16.95;;
35887;SDS011;21990;42.540;23.496;2023-02-28T02:58:16;50.55;;;22.27;;
35887;SDS011;21990;42.540;23.496;2023-02-28T03:00:47;51.15;;;21.15;;
35887;SDS011;21990;42.540;23.496;2023-02-28T03:03:18;41.55;;;16.25;;
35887;SDS011;21990;42.540;23.496;2023-02-28T03:05:54;49.50;;;19.40;;
35887;SDS011;21990;42.540;23.496;2023-02-28T03:08:21;32.05;;;15.75;;
35887;SDS011;21990;42.540;23.496;2023-02-28T03:10:50;36.03;;;15.50;;
35887;SDS011;21990;42.540;23.496;2023-02-28T03:13:29;33.10;;;14.60;;
35887;SDS011;21990;42.540;23.496;2023-02-28T03:16:44;30.55;;;14.13;;
35887;SDS011;21990;42.540;23.496;2023-02-28T03:21:23;26.50;;;11.90;;
35887;SDS011;21990;42.540;23.496;2023-02-28T03:26:26;18.05;;;10.00;;
35887;SDS011;21990;42.540;23.496;2023-02-28T03:29:00;20.30;;;10.93;;
35887;SDS011;21990;42.540;23.496;2023-02-28T03:31:37;21.80;;;10.00;;
35887;SDS011;21990;42.540;23.496;2023-02-28T03:34:08;20.63;;;10.40;;
35887;SDS011;21990;42.540;23.496;2023-02-28T03:36:48;17.13;;;9.35;;
35887;SDS011;21990;42.540;23.496;2023-02-28T03:39:20;32.78;;;19.67;;
35887;SDS011;21990;42.540;23.496;2023-02-28T03:41:51;18.58;;;9.65;;
35887;SDS011;21990;42.540;23.496;2023-02-28T03:44:22;11.00;;;6.88;;
35887;SDS011;21990;42.540;23.496;2023-02-28T03:47:03;11.80;;;6.47;;
35887;SDS011;21990;42.540;23.496;2023-02-28T03:49:31;13.25;;;6.45;;
35887;SDS011;21990;42.540;23.496;2023-02-28T03:52:02;14.95;;;6.28;;
35887;SDS011;21990;42.540;23.496;2023-02-28T03:54:32;11.55;;;6.22;;
35887;SDS011;21990;42.540;23.496;2023-02-28T03:57:05;9.75;;;5.45;;
35887;SDS011;21990;42.540;23.496;2023-02-28T03:59:54;11.57;;;5.75;;
35887;SDS011;21990;42.540;23.496;2023-02-28T04:02:24;13.73;;;6.72;;
35887;SDS011;21990;42.540;23.496;2023-02-28T04:04:50;14.35;;;6.85;;
35887;SDS011;21990;42.540;23.496;2023-02-28T04:07:16;13.63;;;5.90;;
35887;SDS011;21990;42.540;23.496;2023-02-28T04:09:42;17.25;;;6.47;;
35887;SDS011;21990;42.540;23.496;2023-02-28T04:12:08;22.23;;;12.98;;
35887;SDS011;21990;42.540;23.496;2023-02-28T04:14:34;12.65;;;6.85;;
35887;SDS011;21990;42.540;23.496;2023-02-28T04:16:59;9.65;;;5.88;;
35887;SDS011;21990;42.540;23.496;2023-02-28T04:19:25;11.20;;;5.75;;
35887;SDS011;21990;42.540;23.496;2023-02-28T04:21:51;12.25;;;5.65;;
35887;SDS011;21990;42.540;23.496;2023-02-28T04:24:19;9.15;;;5.50;;
35887;SDS011;21990;42.540;23.496;2023-02-28T04:26:50;14.55;;;6.10;;
35887;SDS011;21990;42.540;23.496;2023-02-28T04:29:18;9.95;;;5.65;;
35887;SDS011;21990;42.540;23.496;2023-02-28T04:31:46;11.63;;;5.20;;
35887;SDS011;21990;42.540;23.496;2023-02-28T04:34:11;10.48;;;4.93;;
35887;SDS011;21990;42.540;23.496;2023-02-28T04:36:37;13.60;;;4.95;;
35887;SDS011;21990;42.540;23.496;2023-02-28T04:39:02;11.07;;;5.60;;
35887;SDS011;21990;42.540;23.496;2023-02-28T04:41:29;13.35;;;5.03;;
35887;SDS011;21990;42.540;23.496;2023-02-28T04:43:54;10.32;;;5.13;;
35887;SDS011;21990;42.540;23.496;2023-02-28T04:46:21;13.02;;;6.97;;
35887;SDS011;21990;42.540;23.496;2023-02-28T04:48:47;14.13;;;6.63;;
35887;SDS011;21990;42.540;23.496;2023-02-28T04:51:13;14.57;;;7.35;;
35887;SDS011;21990;42.540;23.496;2023-02-28T04:53:41;11.85;;;6.50;;
35887;SDS011;21990;42.540;23.496;2023-02-28T04:56:08;11.10;;;6.25;;
35887;SDS011;21990;42.540;23.496;2023-02-28T04:58:37;12.07;;;6.80;;
35887;SDS011;21990;42.540;23.496;2023-02-28T05:01:03;11.90;;;7.53;;
35887;SDS011;21990;42.540;23.496;2023-02-28T05:03:40;16.17;;;8.07;;
35887;SDS011;21990;42.540;23.496;2023-02-28T05:06:06;15.15;;;7.50;;
35887;SDS011;21990;42.540;23.496;2023-02-28T05:08:32;15.02;;;7.85;;
35887;SDS011;21990;42.540;23.496;2023-02-28T05:10:58;14.63;;;7.63;;
35887;SDS011;21990;42.540;23.496;2023-02-28T05:13:26;13.13;;;6.97;;
35887;SDS011;21990;42.540;23.496;2023-02-28T05:15:52;30.45;;;14.57;;
35887;SDS011;21990;42.540;23.496;2023-02-28T05:18:17;24.98;;;12.85;;
35887;SDS011;21990;42.540;23.496;2023-02-28T05:20:43;26.75;;;12.27;;
35887;SDS011;21990;42.540;23.496;2023-02-28T05:23:10;18.10;;;9.05;;
35887;SDS011;21990;42.540;23.496;2023-02-28T05:25:38;14.63;;;7.55;;
35887;SDS011;21990;42.540;23.496;2023-02-28T05:28:03;13.82;;;7.05;;
35887;SDS011;21990;42.540;23.496;2023-02-28T05:30:29;13.82;;;7.45;;
35887;SDS011;21990;42.540;23.496;2023-02-28T05:32:56;19.92;;;8.50;;
35887;SDS011;21990;42.540;23.496;2023-02-28T05:35:22;21.65;;;10.45;;
35887;SDS011;21990;42.540;23.496;2023-02-28T05:37:48;31.13;;;17.67;;
35887;SDS011;21990;42.540;23.496;2023-02-28T05:40:14;29.33;;;11.93;;
35887;SDS011;21990;42.540;23.496;2023-02-28T05:42:40;24.23;;;10.93;;
35887;SDS011;21990;42.540;23.496;2023-02-28T05:45:06;20.30;;;10.18;;
35887;SDS011;21990;42.540;23.496;2023-02-28T05:47:32;29.80;;;12.00;;
35887;SDS011;21990;42.540;23.496;2023-02-28T05:49:58;24.17;;;10.73;;
35887;SDS011;21990;42.540;23.496;2023-02-28T05:52:23;27.02;;;10.30;;
35887;SDS011;21990;42.540;23.496;2023-02-28T05:54:49;25.33;;;10.88;;
35887;SDS011;21990;42.540;23.496;2023-02-28T05:57:14;27.30;;;13.52;;
35887;SDS011;21990;42.540;23.496;2023-02-28T05:59:40;27.60;;;12.82;;
35887;SDS011;21990;42.540;23.496;2023-02-28T06:02:06;20.60;;;11.40;;
35887;SDS011;21990;42.540;23.496;2023-02-28T06:04:36;27.55;;;13.63;;
35887;SDS011;21990;42.540;23.496;2023-02-28T06:07:01;31.52;;;15.20;;
35887;SDS011;21990;42.540;23.496;2023-02-28T06:09:27;32.30;;;14.50;;
35887;SDS011;21990;42.540;23.496;2023-02-28T06:11:52;34.78;;;15.50;;
35887;SDS011;21990;42.540;23.496;2023-02-28T06:14:19;32.63;;;15.60;;
35887;SDS011;21990;42.540;23.496;2023-02-28T06:16:45;28.95;;;14.00;;
35887;SDS011;21990;42.540;23.496;2023-02-28T06:19:11;33.33;;;14.50;;
35887;SDS011;21990;42.540;23.496;2023-02-28T06:21:36;32.28;;;16.08;;
35887;SDS011;21990;42.540;23.496;2023-02-28T06:24:02;32.88;;;17.15;;
35887;SDS011;21990;42.540;23.496;2023-02-28T06:26:28;29.55;;;14.07;;
35887;SDS011;21990;42.540;23.496;2023-02-28T06:28:54;22.70;;;11.77;;
35887;SDS011;21990;42.540;23.496;2023-02-28T06:31:19;26.85;;;13.57;;
35887;SDS011;21990;42.540;23.496;2023-02-28T06:33:45;29.00;;;14.23;;
35887;SDS011;21990;42.540;23.496;2023-02-28T06:36:12;21.67;;;12.23;;
35887;SDS011;21990;42.540;23.496;2023-02-28T06:38:40;22.92;;;10.73;;
35887;SDS011;21990;42.540;23.496;2023-02-28T06:41:06;20.05;;;10.43;;
35887;SDS011;21990;42.540;23.496;2023-02-28T06:43:33;16.23;;;8.85;;
35887;SDS011;21990;42.540;23.496;2023-02-28T06:46:03;16.73;;;8.20;;
35887;SDS011;21990;42.540;23.496;2023-02-28T06:48:31;17.95;;;9.50;;
35887;SDS011;21990;42.540;23.496;2023-02-28T06:51:08;17.70;;;9.55;;
35887;SDS011;21990;42.540;23.496;2023-02-28T06:53:35;17.90;;;8.77;;
35887;SDS011;21990;42.540;23.496;2023-02-28T06:56:11;20.52;;;10.70;;
35887;SDS011;21990;42.540;23.496;2023-02-28T06:58:38;24.27;;;10.20;;
35887;SDS011;21990;42.540;23.496;2023-02-28T07:01:07;24.13;;;11.07;;
35887;SDS011;21990;42.540;23.496;2023-02-28T07:03:34;30.80;;;12.15;;
35887;SDS011;21990;42.540;23.496;2023-02-28T07:06:00;47.10;;;18.17;;
35887;SDS011;21990;42.540;23.496;2023-02-28T07:08:26;38.92;;;16.10;;
35887;SDS011;21990;42.540;23.496;2023-02-28T07:10:55;44.42;;;17.20;;
35887;SDS011;21990;42.540;23.496;2023-02-28T07:13:21;42.50;;;16.63;;
35887;SDS011;21990;42.540;23.496;2023-02-28T07:15:57;62.80;;;17.45;;
35887;SDS011;21990;42.540;23.496;2023-02-28T07:18:28;53.28;;;15.68;;
35887;SDS011;21990;42.540;23.496;2023-02-28T07:20:53;70.35;;;17.10;;
35887;SDS011;21990;42.540;23.496;2023-02-28T07:23:19;71.63;;;18.92;;
35887;SDS011;21990;42.540;23.496;2023-02-28T07:25:45;77.70;;;18.17;;
35887;SDS011;21990;42.540;23.496;2023-02-28T07:28:11;72.05;;;18.77;;
35887;SDS011;21990;42.540;23.496;2023-02-28T07:30:38;82.32;;;22.95;;
35887;SDS011;21990;42.540;23.496;2023-02-28T07:33:03;92.80;;;24.15;;
35887;SDS011;21990;42.540;23.496;2023-02-28T07:35:29;71.15;;;23.92;;
35887;SDS011;21990;42.540;23.496;2023-02-28T07:37:57;81.43;;;23.40;;
35887;SDS011;21990;42.540;23.496;2023-02-28T07:40:23;95.22;;;26.58;;
35887;SDS011;21990;42.540;23.496;2023-02-28T07:42:50;78.78;;;25.95;;
35887;SDS011;21990;42.540;23.496;2023-02-28T07:45:15;68.20;;;24.25;;
35887;SDS011;21990;42.540;23.496;2023-02-28T07:47:41;62.67;;;23.10;;
35887;SDS011;21990;42.540;23.496;2023-02-28T07:50:08;62.65;;;21.83;;
35887;SDS011;21990;42.540;23.496;2023-02-28T07:52:36;65.50;;;25.60;;
35887;SDS011;21990;42.540;23.496;2023-02-28T07:55:03;66.50;;;24.15;;
35887;SDS011;21990;42.540;23.496;2023-02-28T07:57:30;61.40;;;22.42;;
35887;SDS011;21990;42.540;23.496;2023-02-28T07:59:55;50.15;;;22.45;;
35887;SDS011;21990;42.540;23.496;2023-02-28T08:02:21;59.47;;;22.65;;
35887;SDS011;21990;42.540;23.496;2023-02-28T08:04:46;49.95;;;22.42;;
35887;SDS011;21990;42.540;23.496;2023-02-28T08:07:13;56.60;;;25.33;;
35887;SDS011;21990;42.540;23.496;2023-02-28T08:09:39;63.45;;;26.42;;
35887;SDS011;21990;42.540;23.496;2023-02-28T08:12:06;79.25;;;28.52;;
35887;SDS011;21990;42.540;23.496;2023-02-28T08:14:32;74.65;;;29.40;;
35887;SDS011;21990;42.540;23.496;2023-02-28T08:16:58;78.43;;;32.53;;
35887;SDS011;21990;42.540;23.496;2023-02-28T08:19:23;68.85;;;30.42;;
35887;SDS011;21990;42.540;23.496;2023-02-28T08:21:49;69.78;;;29.77;;
35887;SDS011;21990;42.540;23.496;2023-02-28T08:24:14;77.30;;;27.55;;
35887;SDS011;21990;42.540;23.496;2023-02-28T08:26:40;64.05;;;26.83;;
35887;SDS011;21990;42.540;23.496;2023-02-28T08:29:05;66.00;;;28.75;;
35887;SDS011;21990;42.540;23.496;2023-02-28T08:31:31;69.68;;;31.23;;
35887;SDS011;21990;42.540;23.496;2023-02-28T08:33:59;64.32;;;26.13;;
35887;SDS011;21990;42.540;23.496;2023-02-28T08:36:25;55.58;;;25.73;;
35887;SDS011;21990;42.540;23.496;2023-02-28T08:38:53;70.50;;;26.00;;
35887;SDS011;21990;42.540;23.496;2023-02-28T08:41:18;58.33;;;25.50;;
35887;SDS011;21990;42.540;23.496;2023-02-28T08:43:44;58.30;;;25.98;;
35887;SDS011;21990;42.540;23.496;2023-02-28T08:46:13;59.65;;;23.80;;
35887;SDS011;21990;42.540;23.496;2023-02-28T08:48:39;46.83;;;23.25;;
35887;SDS011;21990;42.540;23.496;2023-02-28T08:51:06;58.00;;;23.67;;
35887;SDS011;21990;42.540;23.496;2023-02-28T08:53:37;54.90;;;24.80;;
35887;SDS011;21990;42.540;23.496;2023-02-28T08:58:31;67.75;;;27.17;;
35887;SDS011;21990;42.540;23.496;2023-02-28T09:00:58;66.00;;;26.00;;
35887;SDS011;21990;42.540;23.496;2023-02-28T09:03:24;49.40;;;23.73;;
35887;SDS011;21990;42.540;23.496;2023-02-28T09:05:54;55.75;;;24.13;;
35887;SDS011;21990;42.540;23.496;2023-02-28T09:08:24;55.53;;;23.17;;
35887;SDS011;21990;42.540;23.496;2023-02-28T09:10:51;60.08;;;24.75;;
35887;SDS011;21990;42.540;23.496;2023-02-28T09:13:17;56.83;;;25.38;;
35887;SDS011;21990;42.540;23.496;2023-02-28T09:15:44;56.95;;;24.33;;
35887;SDS011;21990;42.540;23.496;2023-02-28T09:18:09;55.08;;;26.75;;
35887;SDS011;21990;42.540;23.496;2023-02-28T09:20:39;55.60;;;23.65;;
35887;SDS011;21990;42.540;23.496;2023-02-28T09:23:06;56.33;;;23.25;;
35887;SDS011;21990;42.540;23.496;2023-02-28T09:25:33;59.67;;;23.13;;
35887;SDS011;21990;42.540;23.496;2023-02-28T09:27:58;62.38;;;25.08;;
35887;SDS011;21990;42.540;23.496;2023-02-28T09:30:24;67.53;;;27.08;;
35887;SDS011;21990;42.540;23.496;2023-02-28T09:32:49;52.63;;;22.02;;
35887;SDS011;21990;42.540;23.496;2023-02-28T09:35:22;55.08;;;21.75;;
35887;SDS011;21990;42.540;23.496;2023-02-28T09:37:49;54.53;;;19.52;;
35887;SDS011;21990;42.540;23.496;2023-02-28T09:40:20;56.05;;;21.10;;
35887;SDS011;21990;42.540;23.496;2023-02-28T09:42:49;57.17;;;21.90;;
35887;SDS011;21990;42.540;23.496;2023-02-28T09:45:28;59.22;;;22.70;;
35887;SDS011;21990;42.540;23.496;2023-02-28T09:48:02;59.97;;;26.35;;
35887;SDS011;21990;42.540;23.496;2023-02-28T09:51:00;74.07;;;26.35;;
35887;SDS011;21990;42.540;23.496;2023-02-28T09:53:40;65.35;;;25.70;;
35887;SDS011;21990;42.540;23.496;2023-02-28T09:56:10;91.13;;;32.28;;
35887;SDS011;21990;42.540;23.496;2023-02-28T10:03:56;45.13;;;20.27;;
35887;SDS011;21990;42.540;23.496;2023-02-28T10:06:29;65.10;;;22.45;;
35887;SDS011;21990;42.540;23.496;2023-02-28T10:09:00;41.92;;;19.65;;
35887;SDS011;21990;42.540;23.496;2023-02-28T10:11:28;54.20;;;22.35;;
35887;SDS011;21990;42.540;23.496;2023-02-28T10:16:59;53.25;;;20.92;;
35887;SDS011;21990;42.540;23.496;2023-02-28T10:19:32;48.05;;;20.33;;
35887;SDS011;21990;42.540;23.496;2023-02-28T10:24:50;53.03;;;21.30;;
35887;SDS011;21990;42.540;23.496;2023-02-28T10:27:19;42.53;;;17.80;;
35887;SDS011;21990;42.540;23.496;2023-02-28T10:29:47;59.88;;;24.40;;
35887;SDS011;21990;42.540;23.496;2023-02-28T10:32:16;63.17;;;24.35;;
35887;SDS011;21990;42.540;23.496;2023-02-28T10:34:43;65.82;;;25.05;;
35887;SDS011;21990;42.540;23.496;2023-02-28T10:37:10;62.67;;;24.42;;
35887;SDS011;21990;42.540;23.496;2023-02-28T10:39:37;53.72;;;21.80;;
35887;SDS011;21990;42.540;23.496;2023-02-28T10:42:23;48.45;;;18.98;;
35887;SDS011;21990;42.540;23.496;2023-02-28T10:45:10;74.50;;;23.23;;
35887;SDS011;21990;42.540;23.496;2023-02-28T10:47:41;43.72;;;19.58;;
35887;SDS011;21990;42.540;23.496;2023-02-28T10:55:41;54.85;;;20.10;;
35887;SDS011;21990;42.540;23.496;2023-02-28T10:58:23;50.28;;;20.52;;
35887;SDS011;21990;42.540;23.496;2023-02-28T11:00:50;54.97;;;22.10;;
35887;SDS011;21990;42.540;23.496;2023-02-28T11:03:23;62.28;;;21.42;;
35887;SDS011;21990;42.540;23.496;2023-02-28T11:05:53;43.55;;;20.00;;
35887;SDS011;21990;42.540;23.496;2023-02-28T11:08:19;51.83;;;20.52;;
35887;SDS011;21990;42.540;23.496;2023-02-28T11:10:46;54.15;;;21.52;;
35887;SDS011;21990;42.540;23.496;2023-02-28T11:13:17;46.53;;;21.85;;
35887;SDS011;21990;42.540;23.496;2023-02-28T11:15:52;46.88;;;21.15;;
35887;SDS011;21990;42.540;23.496;2023-02-28T11:20:52;58.10;;;22.27;;
35887;SDS011;21990;42.540;23.496;2023-02-28T11:23:21;49.08;;;22.50;;
35887;SDS011;21990;42.540;23.496;2023-02-28T11:25:53;56.10;;;23.67;;
35887;SDS011;21990;42.540;23.496;2023-02-28T11:31:03;53.08;;;23.42;;
35887;SDS011;21990;42.540;23.496;2023-02-28T11:33:51;51.78;;;21.10;;
35887;SDS011;21990;42.540;23.496;2023-02-28T11:36:20;54.80;;;20.92;;
35887;SDS011;21990;42.540;23.496;2023-02-28T11:38:52;44.70;;;21.50;;
35887;SDS011;21990;42.540;23.496;2023-02-28T11:46:37;48.30;;;22.60;;
35887;SDS011;21990;42.540;23.496;2023-02-28T11:52:01;57.15;;;21.48;;
35887;SDS011;21990;42.540;23.496;2023-02-28T12:00:15;55.00;;;21.00;;
35887;SDS011;21990;42.540;23.496;2023-02-28T12:06:15;50.85;;;19.40;;
35887;SDS011;21990;42.540;23.496;2023-02-28T12:09:09;51.88;;;20.70;;
35887;SDS011;21990;42.540;23.496;2023-02-28T12:14:50;61.38;;;23.08;;
35887;SDS011;21990;42.540;23.496;2023-02-28T12:20:25;47.92;;;19.58;;
35887;SDS011;21990;42.540;23.496;2023-02-28T12:25:49;68.13;;;25.35;;
35887;SDS011;21990;42.540;23.496;2023-02-28T12:28:21;61.63;;;25.85;;
35887;SDS011;21990;42.540;23.496;2023-02-28T12:33:35;58.63;;;22.77;;
35887;SDS011;21990;42.540;23.496;2023-02-28T12:36:09;49.45;;;23.00;;
35887;SDS011;21990;42.540;23.496;2023-02-28T12:39:23;58.90;;;23.50;;
35887;SDS011;21990;42.540;23.496;2023-02-28T12:47:00;46.65;;;19.38;;
35887;SDS011;21990;42.540;23.496;2023-02-28T12:52:04;60.95;;;22.25;;
35887;SDS011;21990;42.540;23.496;2023-02-28T12:54:44;55.58;;;20.20;;
35887;SDS011;21990;42.540;23.496;2023-02-28T12:57:34;51.92;;;19.17;;
35887;SDS011;21990;42.540;23.496;2023-02-28T13:14:05;51.38;;;20.30;;
35887;SDS011;21990;42.540;23.496;2023-02-28T13:16:51;55.75;;;23.17;;
35887;SDS011;21990;42.540;23.496;2023-02-28T13:19:22;57.45;;;21.67;;
35887;SDS011;21990;42.540;23.496;2023-02-28T13:21:54;58.10;;;20.38;;
35887;SDS011;21990;42.540;23.496;2023-02-28T13:24:36;67.38;;;25.92;;
35887;SDS011;21990;42.540;23.496;2023-02-28T13:29:37;119.57;;;48.10;;
35887;SDS011;21990;42.540;23.496;2023-02-28T13:34:31;65.93;;;24.10;;
35887;SDS011;21990;42.540;23.496;2023-02-28T13:39:55;64.88;;;25.58;;
35887;SDS011;21990;42.540;23.496;2023-02-28T13:58:33;72.20;;;32.17;;
35887;SDS011;21990;42.540;23.496;2023-02-28T14:08:44;56.63;;;24.05;;
35887;SDS011;21990;42.540;23.496;2023-02-28T14:13:58;71.80;;;30.25;;
35887;SDS011;21990;42.540;23.496;2023-02-28T14:16:26;69.95;;;28.55;;
35887;SDS011;21990;42.540;23.496;2023-02-28T14:19:12;74.20;;;30.75;;
35887;SDS011;21990;42.540;23.496;2023-02-28T14:21:47;77.63;;;27.75;;
35887;SDS011;21990;42.540;23.496;2023-02-28T14:33:01;74.82;;;37.85;;
35887;SDS011;21990;42.540;23.496;2023-02-28T14:38:40;64.40;;;29.98;;
35887;SDS011;21990;42.540;23.496;2023-02-28T14:41:31;66.90;;;29.20;;
35887;SDS011;21990;42.540;23.496;2023-02-28T14:44:03;73.75;;;30.58;;
35887;SDS011;21990;42.540;23.496;2023-02-28T14:46:43;55.33;;;26.33;;
35887;SDS011;21990;42.540;23.496;2023-02-28T14:49:29;60.00;;;27.70;;
35887;SDS011;21990;42.540;23.496;2023-02-28T14:52:03;64.72;;;26.73;;
35887;SDS011;21990;42.540;23.496;2023-02-28T14:54:37;58.70;;;22.85;;
35887;SDS011;21990;42.540;23.496;2023-02-28T14:57:04;47.92;;;21.77;;
35887;SDS011;21990;42.540;23.496;2023-02-28T14:59:33;49.58;;;21.52;;
35887;SDS011;21990;42.540;23.496;2023-02-28T15:04:55;48.80;;;21.58;;
35887;SDS011;21990;42.540;23.496;2023-02-28T15:07:25;54.42;;;23.30;;
35887;SDS011;21990;42.540;23.496;2023-02-28T15:12:54;37.72;;;17.98;;
35887;SDS011;21990;42.540;23.496;2023-02-28T15:15:21;50.20;;;19.70;;
35887;SDS011;21990;42.540;23.496;2023-02-28T15:17:53;44.00;;;19.45;;
35887;SDS011;21990;42.540;23.496;2023-02-28T15:20:21;31.20;;;14.90;;
35887;SDS011;21990;42.540;23.496;2023-02-28T15:22:49;32.03;;;16.70;;
35887;SDS011;21990;42.540;23.496;2023-02-28T15:25:19;27.77;;;15.55;;
35887;SDS011;21990;42.540;23.496;2023-02-28T15:27:50;28.70;;;16.17;;
35887;SDS011;21990;42.540;23.496;2023-02-28T15:30:19;31.63;;;17.13;;
35887;SDS011;21990;42.540;23.496;2023-02-28T15:35:36;33.60;;;17.35;;
35887;SDS011;21990;42.540;23.496;2023-02-28T15:40:37;36.60;;;16.53;;
35887;SDS011;21990;42.540;23.496;2023-02-28T15:46:04;40.30;;;18.63;;
35887;SDS011;21990;42.540;23.496;2023-02-28T15:48:43;34.38;;;15.85;;
35887;SDS011;21990;42.540;23.496;2023-02-28T15:51:21;32.60;;;15.95;;
35887;SDS011;21990;42.540;23.496;2023-02-28T15:53:51;40.70;;;21.25;;
35887;SDS011;21990;42.540;23.496;2023-02-28T15:56:29;26.63;;;14.88;;
35887;SDS011;21990;42.540;23.496;2023-02-28T16:01:28;24.55;;;12.88;;
35887;SDS011;21990;42.540;23.496;2023-02-28T16:04:15;21.15;;;10.80;;
35887;SDS011;21990;42.540;23.496;2023-02-28T16:06:46;25.45;;;12.35;;
35887;SDS011;21990;42.540;23.496;2023-02-28T16:09:25;26.52;;;13.90;;
35887;SDS011;21990;42.540;23.496;2023-02-28T16:11:53;17.45;;;8.45;;
35887;SDS011;21990;42.540;23.496;2023-02-28T16:14:21;15.95;;;8.13;;
35887;SDS011;21990;42.540;23.496;2023-02-28T16:16:50;14.88;;;7.97;;
35887;SDS011;21990;42.540;23.496;2023-02-28T16:19:18;17.95;;;8.55;;
35887;SDS011;21990;42.540;23.496;2023-02-28T16:21:44;20.30;;;8.77;;
35887;SDS011;21990;42.540;23.496;2023-02-28T16:24:10;16.65;;;7.03;;
35887;SDS011;21990;42.540;23.496;2023-02-28T16:26:36;13.00;;;6.93;;
35887;SDS011;21990;42.540;23.496;2023-02-28T16:29:06;17.75;;;8.45;;
35887;SDS011;21990;42.540;23.496;2023-02-28T16:31:33;18.27;;;9.52;;
35887;SDS011;21990;42.540;23.496;2023-02-28T16:34:02;18.35;;;8.98;;
35887;SDS011;21990;42.540;23.496;2023-02-28T16:36:28;40.05;;;20.85;;
35887;SDS011;21990;42.540;23.496;2023-02-28T16:38:55;19.45;;;10.00;;
35887;SDS011;21990;42.540;23.496;2023-02-28T16:41:22;38.47;;;22.23;;
35887;SDS011;21990;42.540;23.496;2023-02-28T16:43:53;30.40;;;18.02;;
35887;SDS011;21990;42.540;23.496;2023-02-28T16:46:24;15.65;;;9.05;;
35887;SDS011;21990;42.540;23.496;2023-02-28T16:51:24;23.73;;;14.98;;
35887;SDS011;21990;42.540;23.496;2023-02-28T16:53:52;24.33;;;15.68;;
35887;SDS011;21990;42.540;23.496;2023-02-28T16:56:19;21.75;;;13.63;;
35887;SDS011;21990;42.540;23.496;2023-02-28T16:58:46;22.17;;;15.35;;
35887;SDS011;21990;42.540;23.496;2023-02-28T17:01:13;23.20;;;13.32;;
35887;SDS011;21990;42.540;23.496;2023-02-28T17:03:40;19.33;;;10.90;;
35887;SDS011;21990;42.540;23.496;2023-02-28T17:06:16;22.95;;;14.75;;
35887;SDS011;21990;42.540;23.496;2023-02-28T17:08:44;32.05;;;17.00;;